sensor_id;sensor_type;location;lat;lon;timestamp;pressure;altitude;pressure_sealevel;temperature;humidity
12054;BME280;5638;50.860;4.698;2022-08-03T00:00:07;101170.81;;;23.41;nan
12054;BME280;5638;50.860;4.698;2022-08-03T00:02:33;101166.28;;;23.43;nan
12054;BME280;5638;50.860;4.698;2022-08-03T00:04:58;101163.75;;;23.41;nan
12054;BME280;5638;50.860;4.698;2022-08-03T00:07:24;101158.66;;;23.38;nan
12054;BME280;5638;50.860;4.698;2022-08-03T00:09:50;101163.28;;;23.34;nan
12054;BME280;5638;50.860;4.698;2022-08-03T00:12:16;101167.13;;;23.43;nan
12054;BME280;5638;50.860;4.698;2022-08-03T00:14:42;101161.84;;;23.43;nan
12054;BME280;5638;50.860;4.698;2022-08-03T00:17:08;101157.22;;;23.47;nan
12054;BME280;5638;50.860;4.698;2022-08-03T00:19:33;101151.53;;;23.53;nan
12054;BME280;5638;50.860;4.698;2022-08-03T00:21:59;101154.94;;;23.55;nan
12054;BME280;5638;50.860;4.698;2022-08-03T00:24:25;101165.22;;;23.59;nan
12054;BME280;5638;50.860;4.698;2022-08-03T00:26:51;101151.34;;;23.56;nan
12054;BME280;5638;50.860;4.698;2022-08-03T00:29:16;101167.00;;;23.59;nan
12054;BME280;5638;50.860;4.698;2022-08-03T00:31:42;101164.75;;;23.53;nan
12054;BME280;5638;50.860;4.698;2022-08-03T00:34:08;101146.69;;;23.32;nan
12054;BME280;5638;50.860;4.698;2022-08-03T00:36:34;101160.06;;;23.44;nan
12054;BME280;5638;50.860;4.698;2022-08-03T00:39:00;101147.25;;;23.38;nan
12054;BME280;5638;50.860;4.698;2022-08-03T00:41:26;101155.06;;;23.39;nan
12054;BME280;5638;50.860;4.698;2022-08-03T00:43:52;101146.41;;;23.37;nan
12054;BME280;5638;50.860;4.698;2022-08-03T00:46:18;101159.69;;;23.35;nan
12054;BME280;5638;50.860;4.698;2022-08-03T00:48:44;101138.88;;;23.31;nan
12054;BME280;5638;50.860;4.698;2022-08-03T00:51:10;101148.09;;;23.38;nan
12054;BME280;5638;50.860;4.698;2022-08-03T00:53:36;101141.75;;;23.41;nan
12054;BME280;5638;50.860;4.698;2022-08-03T00:56:02;101150.44;;;23.43;nan
12054;BME280;5638;50.860;4.698;2022-08-03T00:58:28;101141.97;;;23.38;nan
12054;BME280;5638;50.860;4.698;2022-08-03T01:00:54;101134.59;;;23.43;nan
12054;BME280;5638;50.860;4.698;2022-08-03T01:03:20;101130.94;;;23.31;nan
12054;BME280;5638;50.860;4.698;2022-08-03T01:05:58;101133.22;;;23.23;nan
12054;BME280;5638;50.860;4.698;2022-08-03T01:12:13;101138.41;;;23.10;nan
12054;BME280;5638;50.860;4.698;2022-08-03T01:14:53;101134.47;;;23.03;nan
12054;BME280;5638;50.860;4.698;2022-08-03T01:18:21;101142.97;;;23.08;nan
12054;BME280;5638;50.860;4.698;2022-08-03T01:20:45;101141.81;;;23.12;nan
12054;BME280;5638;50.860;4.698;2022-08-03T01:23:34;101149.56;;;23.01;nan
12054;BME280;5638;50.860;4.698;2022-08-03T01:29:28;101136.88;;;22.77;nan
12054;BME280;5638;50.860;4.698;2022-08-03T01:32:02;101129.91;;;22.76;nan
12054;BME280;5638;50.860;4.698;2022-08-03T01:34:36;101133.78;;;22.71;nan
12054;BME280;5638;50.860;4.698;2022-08-03T01:37:08;101137.94;;;22.75;nan
12054;BME280;5638;50.860;4.698;2022-08-03T01:39:37;101125.38;;;22.64;nan
12054;BME280;5638;50.860;4.698;2022-08-03T01:42:06;101128.41;;;22.72;nan
12054;BME280;5638;50.860;4.698;2022-08-03T01:44:42;101125.88;;;22.71;nan
12054;BME280;5638;50.860;4.698;2022-08-03T01:47:11;101125.03;;;22.70;nan
12054;BME280;5638;50.860;4.698;2022-08-03T01:49:42;101118.41;;;22.77;nan
12054;BME280;5638;50.860;4.698;2022-08-03T01:52:11;101116.72;;;22.76;nan
12054;BME280;5638;50.860;4.698;2022-08-03T01:54:45;101111.91;;;22.69;nan
12054;BME280;5638;50.860;4.698;2022-08-03T01:57:14;101116.34;;;22.68;nan
12054;BME280;5638;50.860;4.698;2022-08-03T01:59:43;101120.50;;;22.72;nan
12054;BME280;5638;50.860;4.698;2022-08-03T02:02:13;101109.28;;;22.54;nan
12054;BME280;5638;50.860;4.698;2022-08-03T02:04:42;101112.38;;;22.47;nan
12054;BME280;5638;50.860;4.698;2022-08-03T02:07:10;101117.38;;;22.51;nan
12054;BME280;5638;50.860;4.698;2022-08-03T02:09:39;101108.22;;;22.57;nan
12054;BME280;5638;50.860;4.698;2022-08-03T02:12:11;101110.84;;;22.57;nan
12054;BME280;5638;50.860;4.698;2022-08-03T02:14:40;101116.63;;;22.63;nan
12054;BME280;5638;50.860;4.698;2022-08-03T02:17:09;101113.25;;;22.61;nan
12054;BME280;5638;50.860;4.698;2022-08-03T02:19:36;101098.25;;;22.48;nan
12054;BME280;5638;50.860;4.698;2022-08-03T02:22:07;101104.47;;;22.47;nan
12054;BME280;5638;50.860;4.698;2022-08-03T02:24:34;101110.41;;;22.50;nan
12054;BME280;5638;50.860;4.698;2022-08-03T02:27:03;101113.69;;;22.54;nan
12054;BME280;5638;50.860;4.698;2022-08-03T02:29:33;101108.50;;;22.38;nan
12054;BME280;5638;50.860;4.698;2022-08-03T02:32:02;101106.00;;;22.21;nan
12054;BME280;5638;50.860;4.698;2022-08-03T02:34:32;101113.25;;;22.17;nan
12054;BME280;5638;50.860;4.698;2022-08-03T02:37:00;101100.59;;;22.08;nan
12054;BME280;5638;50.860;4.698;2022-08-03T02:39:31;101100.38;;;22.11;nan
12054;BME280;5638;50.860;4.698;2022-08-03T02:42:00;101095.91;;;22.13;nan
12054;BME280;5638;50.860;4.698;2022-08-03T02:44:31;101101.44;;;22.08;nan
12054;BME280;5638;50.860;4.698;2022-08-03T02:47:07;101097.34;;;22.19;nan
12054;BME280;5638;50.860;4.698;2022-08-03T02:49:35;101099.06;;;22.20;nan
12054;BME280;5638;50.860;4.698;2022-08-03T02:52:08;101100.06;;;22.17;nan
12054;BME280;5638;50.860;4.698;2022-08-03T02:54:37;101099.81;;;22.06;nan
12054;BME280;5638;50.860;4.698;2022-08-03T02:57:06;101093.81;;;22.04;nan
12054;BME280;5638;50.860;4.698;2022-08-03T02:59:33;101098.22;;;22.03;nan
12054;BME280;5638;50.860;4.698;2022-08-03T03:02:01;101098.22;;;22.03;nan
12054;BME280;5638;50.860;4.698;2022-08-03T03:04:29;101087.16;;;21.82;nan
12054;BME280;5638;50.860;4.698;2022-08-03T03:06:56;101094.00;;;21.85;nan
12054;BME280;5638;50.860;4.698;2022-08-03T03:09:23;101095.47;;;21.91;nan
12054;BME280;5638;50.860;4.698;2022-08-03T03:11:52;101083.13;;;21.91;nan
12054;BME280;5638;50.860;4.698;2022-08-03T03:14:19;101090.00;;;21.94;nan
12054;BME280;5638;50.860;4.698;2022-08-03T03:16:47;101071.69;;;21.76;nan
12054;BME280;5638;50.860;4.698;2022-08-03T03:19:15;101090.22;;;21.75;nan
12054;BME280;5638;50.860;4.698;2022-08-03T03:21:43;101086.75;;;21.58;nan
12054;BME280;5638;50.860;4.698;2022-08-03T03:24:09;101085.56;;;21.64;nan
12054;BME280;5638;50.860;4.698;2022-08-03T03:26:36;101084.19;;;21.57;nan
12054;BME280;5638;50.860;4.698;2022-08-03T03:29:03;101089.81;;;21.51;nan
12054;BME280;5638;50.860;4.698;2022-08-03T03:31:29;101089.13;;;21.47;nan
12054;BME280;5638;50.860;4.698;2022-08-03T03:33:58;101088.19;;;21.48;nan
12054;BME280;5638;50.860;4.698;2022-08-03T03:36:24;101080.22;;;21.50;nan
12054;BME280;5638;50.860;4.698;2022-08-03T03:38:50;101081.31;;;21.61;nan
12054;BME280;5638;50.860;4.698;2022-08-03T03:41:16;101066.13;;;21.51;nan
12054;BME280;5638;50.860;4.698;2022-08-03T03:43:42;101080.66;;;21.58;nan
12054;BME280;5638;50.860;4.698;2022-08-03T03:46:11;101072.06;;;21.54;nan
12054;BME280;5638;50.860;4.698;2022-08-03T03:48:38;101082.34;;;21.59;nan
12054;BME280;5638;50.860;4.698;2022-08-03T03:51:04;101081.81;;;21.52;nan
12054;BME280;5638;50.860;4.698;2022-08-03T03:53:31;101083.53;;;21.53;nan
12054;BME280;5638;50.860;4.698;2022-08-03T03:55:57;101085.56;;;21.48;nan
12054;BME280;5638;50.860;4.698;2022-08-03T03:58:23;101088.13;;;21.50;nan
12054;BME280;5638;50.860;4.698;2022-08-03T04:00:49;101088.13;;;21.50;nan
12054;BME280;5638;50.860;4.698;2022-08-03T04:03:15;101079.66;;;21.45;nan
12054;BME280;5638;50.860;4.698;2022-08-03T04:05:42;101092.63;;;21.48;nan
12054;BME280;5638;50.860;4.698;2022-08-03T04:08:26;101076.41;;;21.39;nan
12054;BME280;5638;50.860;4.698;2022-08-03T04:11:22;101085.91;;;21.42;nan
12054;BME280;5638;50.860;4.698;2022-08-03T04:13:59;101082.69;;;21.37;nan
12054;BME280;5638;50.860;4.698;2022-08-03T04:16:33;101083.09;;;21.29;nan
12054;BME280;5638;50.860;4.698;2022-08-03T04:19:11;101088.97;;;21.34;nan
12054;BME280;5638;50.860;4.698;2022-08-03T04:21:42;101100.03;;;21.41;nan
12054;BME280;5638;50.860;4.698;2022-08-03T04:24:10;101093.72;;;21.44;nan
12054;BME280;5638;50.860;4.698;2022-08-03T04:26:40;101087.13;;;21.36;nan
12054;BME280;5638;50.860;4.698;2022-08-03T04:29:09;101085.59;;;21.32;nan
12054;BME280;5638;50.860;4.698;2022-08-03T04:31:38;101095.31;;;21.30;nan
12054;BME280;5638;50.860;4.698;2022-08-03T04:34:06;101093.19;;;21.21;nan
12054;BME280;5638;50.860;4.698;2022-08-03T04:36:39;101091.31;;;21.23;nan
12054;BME280;5638;50.860;4.698;2022-08-03T04:39:27;101101.59;;;21.28;nan
12054;BME280;5638;50.860;4.698;2022-08-03T04:42:02;101097.25;;;21.27;nan
12054;BME280;5638;50.860;4.698;2022-08-03T04:44:34;101101.34;;;21.17;nan
12054;BME280;5638;50.860;4.698;2022-08-03T04:47:01;101096.41;;;21.10;nan
12054;BME280;5638;50.860;4.698;2022-08-03T04:49:29;101100.66;;;21.13;nan
12054;BME280;5638;50.860;4.698;2022-08-03T04:51:55;101097.44;;;21.08;nan
12054;BME280;5638;50.860;4.698;2022-08-03T04:54:21;101105.91;;;21.13;nan
12054;BME280;5638;50.860;4.698;2022-08-03T04:56:47;101108.38;;;21.16;nan
12054;BME280;5638;50.860;4.698;2022-08-03T04:59:13;101112.63;;;21.19;nan
12054;BME280;5638;50.860;4.698;2022-08-03T05:01:39;101104.22;;;21.12;nan
12054;BME280;5638;50.860;4.698;2022-08-03T05:04:08;101120.59;;;21.17;nan
12054;BME280;5638;50.860;4.698;2022-08-03T05:06:34;101123.59;;;21.11;nan
12054;BME280;5638;50.860;4.698;2022-08-03T05:09:00;101109.81;;;21.06;nan
12054;BME280;5638;50.860;4.698;2022-08-03T05:11:26;101113.06;;;21.11;nan
12054;BME280;5638;50.860;4.698;2022-08-03T05:13:52;101119.91;;;21.13;nan
12054;BME280;5638;50.860;4.698;2022-08-03T05:16:17;101134.34;;;21.22;nan
12054;BME280;5638;50.860;4.698;2022-08-03T05:18:44;101121.34;;;21.19;nan
12054;BME280;5638;50.860;4.698;2022-08-03T05:21:11;101127.31;;;21.23;nan
12054;BME280;5638;50.860;4.698;2022-08-03T05:23:39;101128.34;;;21.20;nan
12054;BME280;5638;50.860;4.698;2022-08-03T05:26:06;101136.03;;;21.23;nan
12054;BME280;5638;50.860;4.698;2022-08-03T05:28:31;101127.00;;;21.29;nan
12054;BME280;5638;50.860;4.698;2022-08-03T05:30:57;101093.75;;;21.10;nan
12054;BME280;5638;50.860;4.698;2022-08-03T05:33:23;101129.53;;;21.30;nan
12054;BME280;5638;50.860;4.698;2022-08-03T05:35:49;101130.38;;;21.31;nan
12054;BME280;5638;50.860;4.698;2022-08-03T05:38:15;101136.47;;;21.31;nan
12054;BME280;5638;50.860;4.698;2022-08-03T05:40:41;101127.84;;;21.29;nan
12054;BME280;5638;50.860;4.698;2022-08-03T05:43:07;101130.94;;;21.37;nan
12054;BME280;5638;50.860;4.698;2022-08-03T05:45:33;101128.47;;;21.50;nan
12054;BME280;5638;50.860;4.698;2022-08-03T05:47:58;101128.63;;;21.63;nan
12054;BME280;5638;50.860;4.698;2022-08-03T05:50:24;101134.72;;;21.79;nan
12054;BME280;5638;50.860;4.698;2022-08-03T05:52:53;101125.88;;;21.80;nan
12054;BME280;5638;50.860;4.698;2022-08-03T05:55:19;101133.34;;;21.88;nan
12054;BME280;5638;50.860;4.698;2022-08-03T05:57:45;101114.81;;;21.89;nan
12054;BME280;5638;50.860;4.698;2022-08-03T06:00:13;101124.75;;;22.00;nan
12054;BME280;5638;50.860;4.698;2022-08-03T06:02:40;101115.56;;;22.07;nan
12054;BME280;5638;50.860;4.698;2022-08-03T06:05:06;101124.75;;;22.16;nan
12054;BME280;5638;50.860;4.698;2022-08-03T06:07:33;101133.97;;;22.23;nan
12054;BME280;5638;50.860;4.698;2022-08-03T06:09:59;101124.53;;;22.19;nan
12054;BME280;5638;50.860;4.698;2022-08-03T06:12:28;101133.16;;;22.37;nan
12054;BME280;5638;50.860;4.698;2022-08-03T06:14:54;101125.72;;;22.44;nan
12054;BME280;5638;50.860;4.698;2022-08-03T06:17:20;101132.06;;;22.55;nan
12054;BME280;5638;50.860;4.698;2022-08-03T06:19:46;101127.81;;;22.53;nan
12054;BME280;5638;50.860;4.698;2022-08-03T06:22:12;101134.81;;;22.68;nan
12054;BME280;5638;50.860;4.698;2022-08-03T06:24:37;101127.56;;;22.72;nan
12054;BME280;5638;50.860;4.698;2022-08-03T06:27:03;101131.59;;;22.77;nan
12054;BME280;5638;50.860;4.698;2022-08-03T06:29:29;101135.41;;;22.87;nan
12054;BME280;5638;50.860;4.698;2022-08-03T06:31:55;101125.25;;;22.96;nan
12054;BME280;5638;50.860;4.698;2022-08-03T06:34:21;101118.84;;;23.00;nan
12054;BME280;5638;50.860;4.698;2022-08-03T06:36:47;101136.16;;;23.18;nan
12054;BME280;5638;50.860;4.698;2022-08-03T06:39:15;101137.91;;;23.32;nan
12054;BME280;5638;50.860;4.698;2022-08-03T06:41:42;101141.97;;;23.38;nan
12054;BME280;5638;50.860;4.698;2022-08-03T06:44:08;101141.38;;;23.47;nan
12054;BME280;5638;50.860;4.698;2022-08-03T06:46:33;101130.81;;;23.47;nan
12054;BME280;5638;50.860;4.698;2022-08-03T06:48:59;101147.09;;;23.53;nan
12054;BME280;5638;50.860;4.698;2022-08-03T06:51:25;101142.69;;;23.54;nan
12054;BME280;5638;50.860;4.698;2022-08-03T06:53:51;101139.47;;;23.49;nan
12054;BME280;5638;50.860;4.698;2022-08-03T06:56:17;101136.28;;;23.58;nan
12054;BME280;5638;50.860;4.698;2022-08-03T06:58:42;101156.53;;;23.72;nan
12054;BME280;5638;50.860;4.698;2022-08-03T07:01:08;101144.28;;;23.71;nan
12054;BME280;5638;50.860;4.698;2022-08-03T07:03:34;101141.22;;;23.77;nan
12054;BME280;5638;50.860;4.698;2022-08-03T07:06:00;101146.88;;;23.85;nan
12054;BME280;5638;50.860;4.698;2022-08-03T07:08:26;101159.47;;;23.94;nan
12054;BME280;5638;50.860;4.698;2022-08-03T07:10:52;101155.78;;;23.97;nan
12054;BME280;5638;50.860;4.698;2022-08-03T07:13:18;101156.63;;;23.97;nan
12054;BME280;5638;50.860;4.698;2022-08-03T07:15:44;101162.97;;;23.95;nan
12054;BME280;5638;50.860;4.698;2022-08-03T07:18:09;101174.19;;;23.98;nan
12054;BME280;5638;50.860;4.698;2022-08-03T07:20:35;101173.34;;;23.98;nan
12054;BME280;5638;50.860;4.698;2022-08-03T07:23:01;101155.13;;;23.93;nan
12054;BME280;5638;50.860;4.698;2022-08-03T07:25:28;101163.22;;;24.04;nan
12054;BME280;5638;50.860;4.698;2022-08-03T07:27:54;101187.78;;;24.19;nan
12054;BME280;5638;50.860;4.698;2022-08-03T07:30:19;101171.91;;;24.19;nan
12054;BME280;5638;50.860;4.698;2022-08-03T07:32:45;101164.75;;;24.21;nan
12054;BME280;5638;50.860;4.698;2022-08-03T07:35:11;101165.38;;;24.25;nan
12054;BME280;5638;50.860;4.698;2022-08-03T07:37:37;101162.63;;;24.26;nan
12054;BME280;5638;50.860;4.698;2022-08-03T07:40:04;101171.34;;;24.41;nan
12054;BME280;5638;50.860;4.698;2022-08-03T07:42:30;101168.00;;;24.52;nan
12054;BME280;5638;50.860;4.698;2022-08-03T07:44:58;101172.97;;;24.56;nan
12054;BME280;5638;50.860;4.698;2022-08-03T07:47:27;101174.06;;;24.67;nan
12054;BME280;5638;50.860;4.698;2022-08-03T07:49:54;101161.44;;;24.70;nan
12054;BME280;5638;50.860;4.698;2022-08-03T07:52:20;101164.94;;;24.83;nan
12054;BME280;5638;50.860;4.698;2022-08-03T07:55:06;101163.34;;;24.94;nan
12054;BME280;5638;50.860;4.698;2022-08-03T07:57:34;101172.44;;;25.15;nan
12054;BME280;5638;50.860;4.698;2022-08-03T08:00:00;101160.38;;;25.11;nan
12054;BME280;5638;50.860;4.698;2022-08-03T08:02:26;101167.59;;;25.09;nan
12054;BME280;5638;50.860;4.698;2022-08-03T08:04:52;101169.09;;;25.13;nan
12054;BME280;5638;50.860;4.698;2022-08-03T08:07:18;101163.34;;;25.19;nan
12054;BME280;5638;50.860;4.698;2022-08-03T08:09:43;101156.22;;;25.20;nan
12054;BME280;5638;50.860;4.698;2022-08-03T08:12:09;101167.34;;;25.38;nan
12054;BME280;5638;50.860;4.698;2022-08-03T08:14:37;101162.66;;;25.41;nan
12054;BME280;5638;50.860;4.698;2022-08-03T08:17:03;101162.88;;;25.38;nan
12054;BME280;5638;50.860;4.698;2022-08-03T08:19:29;101152.94;;;25.42;nan
12054;BME280;5638;50.860;4.698;2022-08-03T08:21:55;101162.59;;;25.54;nan
12054;BME280;5638;50.860;4.698;2022-08-03T08:24:21;101147.59;;;25.54;nan
12054;BME280;5638;50.860;4.698;2022-08-03T08:26:46;101151.38;;;25.63;nan
12054;BME280;5638;50.860;4.698;2022-08-03T08:29:12;101145.91;;;25.77;nan
12054;BME280;5638;50.860;4.698;2022-08-03T08:31:38;101146.66;;;25.79;nan
12054;BME280;5638;50.860;4.698;2022-08-03T08:34:04;101145.47;;;25.83;nan
12054;BME280;5638;50.860;4.698;2022-08-03T08:36:32;101145.00;;;25.90;nan
12054;BME280;5638;50.860;4.698;2022-08-03T08:38:58;101144.03;;;25.91;nan
12054;BME280;5638;50.860;4.698;2022-08-03T08:41:24;101145.50;;;25.95;nan
12054;BME280;5638;50.860;4.698;2022-08-03T08:43:50;101148.56;;;26.01;nan
12054;BME280;5638;50.860;4.698;2022-08-03T08:46:18;101142.88;;;26.41;nan
12054;BME280;5638;50.860;4.698;2022-08-03T08:48:47;101131.91;;;26.35;nan
12054;BME280;5638;50.860;4.698;2022-08-03T08:51:15;101140.56;;;26.25;nan
12054;BME280;5638;50.860;4.698;2022-08-03T08:53:49;101148.00;;;26.20;nan
12054;BME280;5638;50.860;4.698;2022-08-03T08:56:17;101140.19;;;26.19;nan
12054;BME280;5638;50.860;4.698;2022-08-03T08:58:55;101133.81;;;26.21;nan
12054;BME280;5638;50.860;4.698;2022-08-03T09:01:23;101139.88;;;26.35;nan
12054;BME280;5638;50.860;4.698;2022-08-03T09:03:49;101141.06;;;26.42;nan
12054;BME280;5638;50.860;4.698;2022-08-03T09:06:16;101137.91;;;26.61;nan
12054;BME280;5638;50.860;4.698;2022-08-03T09:08:42;101134.66;;;26.68;nan
12054;BME280;5638;50.860;4.698;2022-08-03T09:11:08;101145.16;;;26.81;nan
12054;BME280;5638;50.860;4.698;2022-08-03T09:13:34;101136.81;;;26.86;nan
12054;BME280;5638;50.860;4.698;2022-08-03T09:16:18;101136.47;;;26.90;nan
12054;BME280;5638;50.860;4.698;2022-08-03T09:18:52;101144.28;;;26.92;nan
12054;BME280;5638;50.860;4.698;2022-08-03T09:21:27;101135.25;;;27.05;nan
12054;BME280;5638;50.860;4.698;2022-08-03T09:23:59;101148.91;;;27.12;nan
12054;BME280;5638;50.860;4.698;2022-08-03T09:26:28;101145.50;;;27.33;nan
12054;BME280;5638;50.860;4.698;2022-08-03T09:29:07;101144.31;;;27.37;nan
12054;BME280;5638;50.860;4.698;2022-08-03T09:31:39;101143.22;;;27.39;nan
12054;BME280;5638;50.860;4.698;2022-08-03T09:34:09;101120.75;;;27.32;nan
12054;BME280;5638;50.860;4.698;2022-08-03T09:36:46;101138.28;;;27.67;nan
12054;BME280;5638;50.860;4.698;2022-08-03T09:39:18;101131.97;;;27.90;nan
12054;BME280;5638;50.860;4.698;2022-08-03T09:42:04;101141.97;;;27.98;nan
12054;BME280;5638;50.860;4.698;2022-08-03T09:44:43;101134.84;;;27.98;nan
12054;BME280;5638;50.860;4.698;2022-08-03T09:47:12;101125.88;;;27.99;nan
12054;BME280;5638;50.860;4.698;2022-08-03T09:49:40;101129.84;;;28.05;nan
12054;BME280;5638;50.860;4.698;2022-08-03T09:52:16;101118.53;;;28.13;nan
12054;BME280;5638;50.860;4.698;2022-08-03T09:54:50;101131.59;;;28.16;nan
12054;BME280;5638;50.860;4.698;2022-08-03T09:57:22;101121.28;;;28.22;nan
12054;BME280;5638;50.860;4.698;2022-08-03T09:59:49;101129.47;;;28.30;nan
12054;BME280;5638;50.860;4.698;2022-08-03T10:02:26;101129.69;;;28.39;nan
12054;BME280;5638;50.860;4.698;2022-08-03T10:04:54;101134.03;;;28.40;nan
12054;BME280;5638;50.860;4.698;2022-08-03T10:07:24;101123.13;;;28.43;nan
12054;BME280;5638;50.860;4.698;2022-08-03T10:10:00;101120.66;;;28.51;nan
12054;BME280;5638;50.860;4.698;2022-08-03T10:12:28;101129.50;;;28.51;nan
12054;BME280;5638;50.860;4.698;2022-08-03T10:14:54;101125.44;;;28.57;nan
12054;BME280;5638;50.860;4.698;2022-08-03T10:17:21;101112.84;;;28.59;nan
12054;BME280;5638;50.860;4.698;2022-08-03T10:19:48;101112.28;;;28.86;nan
12054;BME280;5638;50.860;4.698;2022-08-03T10:22:28;101114.34;;;29.13;nan
12054;BME280;5638;50.860;4.698;2022-08-03T10:25:11;101103.31;;;29.27;nan
12054;BME280;5638;50.860;4.698;2022-08-03T10:27:41;101111.16;;;29.29;nan
12054;BME280;5638;50.860;4.698;2022-08-03T10:30:11;101113.81;;;29.29;nan
12054;BME280;5638;50.860;4.698;2022-08-03T10:32:54;101097.00;;;29.28;nan
12054;BME280;5638;50.860;4.698;2022-08-03T10:35:25;101104.16;;;29.28;nan
12054;BME280;5638;50.860;4.698;2022-08-03T10:37:59;101110.47;;;29.37;nan
12054;BME280;5638;50.860;4.698;2022-08-03T10:40:30;101104.47;;;29.54;nan
12054;BME280;5638;50.860;4.698;2022-08-03T10:43:06;101089.06;;;29.67;nan
12054;BME280;5638;50.860;4.698;2022-08-03T10:45:40;101085.13;;;29.91;nan
12054;BME280;5638;50.860;4.698;2022-08-03T10:48:07;101096.34;;;29.75;nan
12054;BME280;5638;50.860;4.698;2022-08-03T10:50:34;101085.97;;;29.82;nan
12054;BME280;5638;50.860;4.698;2022-08-03T10:53:06;101078.53;;;29.85;nan
12054;BME280;5638;50.860;4.698;2022-08-03T10:55:40;101073.06;;;29.87;nan
12054;BME280;5638;50.860;4.698;2022-08-03T10:58:51;101066.13;;;30.13;nan
12054;BME280;5638;50.860;4.698;2022-08-03T11:01:48;101073.97;;;30.34;nan
12054;BME280;5638;50.860;4.698;2022-08-03T11:04:17;101069.63;;;30.70;nan
12054;BME280;5638;50.860;4.698;2022-08-03T11:06:44;101072.00;;;31.01;nan
12054;BME280;5638;50.860;4.698;2022-08-03T11:11:40;101065.28;;;30.97;nan
12054;BME280;5638;50.860;4.698;2022-08-03T11:14:20;101061.09;;;30.94;nan
12054;BME280;5638;50.860;4.698;2022-08-03T11:17:07;101057.25;;;30.97;nan
12054;BME280;5638;50.860;4.698;2022-08-03T11:19:47;101059.44;;;30.84;nan
12054;BME280;5638;50.860;4.698;2022-08-03T11:22:15;101070.22;;;30.64;nan
12054;BME280;5638;50.860;4.698;2022-08-03T11:27:33;101061.28;;;30.83;nan
12054;BME280;5638;50.860;4.698;2022-08-03T11:35:32;101063.34;;;31.17;nan
12054;BME280;5638;50.860;4.698;2022-08-03T11:40:53;101069.34;;;31.46;nan
12054;BME280;5638;50.860;4.698;2022-08-03T11:46:03;101052.53;;;31.54;nan
12054;BME280;5638;50.860;4.698;2022-08-03T11:48:42;101052.13;;;32.03;nan
12054;BME280;5638;50.860;4.698;2022-08-03T11:51:27;101053.72;;;32.21;nan
12054;BME280;5638;50.860;4.698;2022-08-03T11:54:05;101050.38;;;32.19;nan
12054;BME280;5638;50.860;4.698;2022-08-03T11:56:48;101049.91;;;32.50;nan
12054;BME280;5638;50.860;4.698;2022-08-03T11:59:15;101045.94;;;32.62;nan
12054;BME280;5638;50.860;4.698;2022-08-03T12:01:42;101049.31;;;32.72;nan
12054;BME280;5638;50.860;4.698;2022-08-03T12:04:10;101052.50;;;32.68;nan
12054;BME280;5638;50.860;4.698;2022-08-03T12:06:36;101046.59;;;32.64;nan
12054;BME280;5638;50.860;4.698;2022-08-03T12:09:21;101062.59;;;32.48;nan
12054;BME280;5638;50.860;4.698;2022-08-03T12:11:48;101046.75;;;32.29;nan
12054;BME280;5638;50.860;4.698;2022-08-03T12:14:19;101059.31;;;32.28;nan
12054;BME280;5638;50.860;4.698;2022-08-03T12:16:48;101065.81;;;31.82;nan
12054;BME280;5638;50.860;4.698;2022-08-03T12:19:14;101053.16;;;31.84;nan
12054;BME280;5638;50.860;4.698;2022-08-03T12:21:48;101051.25;;;32.02;nan
12054;BME280;5638;50.860;4.698;2022-08-03T12:24:14;101046.47;;;32.14;nan
12054;BME280;5638;50.860;4.698;2022-08-03T12:26:48;101041.41;;;32.29;nan
12054;BME280;5638;50.860;4.698;2022-08-03T12:29:18;101042.66;;;32.42;nan
12054;BME280;5638;50.860;4.698;2022-08-03T12:31:45;101025.66;;;32.60;nan
12054;BME280;5638;50.860;4.698;2022-08-03T12:34:11;101026.56;;;32.77;nan
12054;BME280;5638;50.860;4.698;2022-08-03T12:36:50;101039.06;;;33.02;nan
12054;BME280;5638;50.860;4.698;2022-08-03T12:39:22;101032.38;;;33.22;nan
12054;BME280;5638;50.860;4.698;2022-08-03T12:41:52;101035.09;;;33.39;nan
12054;BME280;5638;50.860;4.698;2022-08-03T12:44:35;101028.75;;;33.72;nan
12054;BME280;5638;50.860;4.698;2022-08-03T12:47:03;101025.06;;;33.98;nan
12054;BME280;5638;50.860;4.698;2022-08-03T12:49:53;101028.41;;;33.92;nan
12054;BME280;5638;50.860;4.698;2022-08-03T12:52:21;101033.28;;;33.80;nan
12054;BME280;5638;50.860;4.698;2022-08-03T12:54:58;101032.78;;;33.68;nan
12054;BME280;5638;50.860;4.698;2022-08-03T12:57:25;101028.09;;;33.70;nan
12054;BME280;5638;50.860;4.698;2022-08-03T13:00:17;101030.91;;;33.93;nan
12054;BME280;5638;50.860;4.698;2022-08-03T13:02:43;101028.09;;;34.03;nan
12054;BME280;5638;50.860;4.698;2022-08-03T13:05:11;101027.69;;;34.14;nan
12054;BME280;5638;50.860;4.698;2022-08-03T13:07:44;101008.72;;;34.24;nan
12054;BME280;5638;50.860;4.698;2022-08-03T13:10:26;101011.16;;;34.42;nan
12054;BME280;5638;50.860;4.698;2022-08-03T13:12:52;101017.47;;;34.65;nan
12054;BME280;5638;50.860;4.698;2022-08-03T13:15:18;101010.41;;;34.64;nan
12054;BME280;5638;50.860;4.698;2022-08-03T13:17:44;101004.16;;;34.33;nan
12054;BME280;5638;50.860;4.698;2022-08-03T13:20:10;101026.88;;;33.81;nan
12054;BME280;5638;50.860;4.698;2022-08-03T13:22:36;101013.00;;;33.69;nan
12054;BME280;5638;50.860;4.698;2022-08-03T13:25:03;101019.19;;;33.94;nan
12054;BME280;5638;50.860;4.698;2022-08-03T13:27:30;101006.72;;;34.10;nan
12054;BME280;5638;50.860;4.698;2022-08-03T13:29:56;101008.69;;;34.32;nan
12054;BME280;5638;50.860;4.698;2022-08-03T13:32:23;101010.75;;;34.14;nan
12054;BME280;5638;50.860;4.698;2022-08-03T13:34:49;101004.06;;;33.85;nan
12054;BME280;5638;50.860;4.698;2022-08-03T13:37:15;101011.47;;;33.83;nan
12054;BME280;5638;50.860;4.698;2022-08-03T13:39:41;101007.78;;;33.84;nan
12054;BME280;5638;50.860;4.698;2022-08-03T13:42:07;100997.72;;;33.86;nan
12054;BME280;5638;50.860;4.698;2022-08-03T13:44:34;101001.38;;;33.93;nan
12054;BME280;5638;50.860;4.698;2022-08-03T13:47:03;100994.00;;;34.04;nan
12054;BME280;5638;50.860;4.698;2022-08-03T13:49:29;100993.78;;;34.22;nan
12054;BME280;5638;50.860;4.698;2022-08-03T13:51:56;100991.88;;;34.38;nan
12054;BME280;5638;50.860;4.698;2022-08-03T13:54:23;100998.41;;;34.36;nan
12054;BME280;5638;50.860;4.698;2022-08-03T13:56:50;100975.56;;;34.40;nan